createdAt,value
2023-05-09T00:01:37.024Z,30.90
2023-05-09T00:04:04.234Z,30.05
2023-05-09T00:06:32.515Z,30.15
2023-05-09T00:08:59.518Z,30.63
2023-05-09T00:11:27.618Z,30.42
2023-05-09T00:13:54.769Z,30.60
2023-05-09T00:16:24.328Z,31.88
2023-05-09T00:18:51.422Z,31.92
2023-05-09T00:21:18.492Z,32.47
2023-05-09T00:23:46.701Z,32.28
2023-05-09T00:26:13.760Z,32.33
2023-05-09T00:28:40.786Z,32.58
2023-05-09T00:31:09.380Z,32.85
2023-05-09T00:33:36.318Z,32.63
2023-05-09T00:36:03.503Z,31.95
2023-05-09T00:38:30.496Z,31.83
2023-05-09T00:40:57.525Z,30.67
2023-05-09T00:43:24.589Z,31.73
2023-05-09T00:45:51.897Z,31.90
2023-05-09T00:48:19.486Z,31.70
2023-05-09T00:50:47.856Z,31.67
2023-05-09T00:53:15.103Z,31.10
2023-05-09T00:55:42.305Z,31.73
2023-05-09T00:58:09.420Z,32.17
2023-05-09T01:00:36.883Z,31.88
2023-05-09T01:03:05.167Z,31.13
2023-05-09T01:05:57.273Z,31.77
2023-05-09T01:08:43.030Z,33.22
2023-05-09T01:11:34.529Z,31.83
2023-05-09T01:14:31.243Z,32.50
2023-05-09T01:17:21.797Z,32.67
2023-05-09T01:20:18.838Z,32.60
2023-05-09T01:23:11.185Z,32.67
2023-05-09T01:26:06.177Z,31.42
2023-05-09T01:28:48.091Z,32.40
2023-05-09T01:31:17.352Z,31.50
2023-05-09T01:33:47.112Z,31.80
2023-05-09T01:36:18.446Z,32.03
2023-05-09T01:38:50.494Z,31.35
2023-05-09T01:41:19.503Z,32.22
2023-05-09T01:43:47.511Z,33.08
2023-05-09T01:46:17.807Z,31.13
2023-05-09T01:48:45.750Z,31.98
2023-05-09T01:51:14.718Z,32.38
2023-05-09T01:53:43.124Z,31.23
2023-05-09T01:56:11.644Z,32.05
2023-05-09T01:58:39.902Z,32.08
2023-05-09T02:01:07.482Z,33.28
2023-05-09T02:03:37.366Z,33.10
2023-05-09T02:06:05.518Z,32.85
2023-05-09T02:08:33.703Z,33.40
2023-05-09T02:11:00.793Z,32.58
2023-05-09T02:13:27.944Z,33.17
2023-05-09T02:15:55.961Z,32.60
2023-05-09T02:18:23.131Z,33.75
2023-05-09T02:20:50.216Z,33.55
2023-05-09T02:23:17.283Z,34.08
2023-05-09T02:25:45.336Z,34.90
2023-05-09T02:28:13.731Z,34.58
2023-05-09T02:30:44.379Z,34.67
2023-05-09T02:33:13.327Z,34.33
2023-05-09T02:35:45.984Z,33.85
2023-05-09T02:38:13.800Z,34.25
2023-05-09T02:40:43.772Z,34.28
2023-05-09T02:43:11.446Z,34.30
2023-05-09T02:45:38.605Z,32.83
2023-05-09T02:48:08.312Z,34.20
2023-05-09T02:50:38.615Z,33.80
2023-05-09T02:53:06.345Z,32.95
2023-05-09T02:55:33.457Z,33.95
2023-05-09T02:58:12.823Z,32.67
2023-05-09T03:00:41.060Z,33.67
2023-05-09T03:03:09.703Z,32.95
2023-05-09T03:05:36.884Z,33.10
2023-05-09T03:08:04.301Z,31.00
2023-05-09T03:10:31.319Z,31.92
2023-05-09T03:12:58.385Z,32.28
2023-05-09T03:15:27.104Z,33.08
2023-05-09T03:17:54.184Z,32.28
2023-05-09T03:20:21.626Z,32.50
2023-05-09T03:22:48.747Z,32.92
2023-05-09T03:25:17.034Z,32.13
2023-05-09T03:27:44.187Z,32.50
2023-05-09T03:30:11.774Z,32.05
2023-05-09T03:32:39.602Z,32.85
2023-05-09T03:35:07.394Z,33.42
2023-05-09T03:37:34.729Z,31.35
2023-05-09T03:40:02.099Z,32.10
2023-05-09T03:42:31.217Z,32.05
2023-05-09T03:44:58.986Z,31.77
2023-05-09T03:47:26.013Z,32.28
2023-05-09T03:49:53.732Z,31.58
2023-05-09T03:52:20.807Z,31.67
2023-05-09T03:54:47.916Z,32.40
2023-05-09T03:57:14.925Z,32.38
2023-05-09T03:59:42.060Z,33.05
2023-05-09T04:02:09.296Z,32.42
2023-05-09T04:04:36.377Z,32.15
2023-05-09T04:07:03.498Z,30.88
2023-05-09T04:09:30.931Z,31.40
2023-05-09T04:11:57.897Z,31.45
2023-05-09T04:14:25.068Z,31.95
2023-05-09T04:16:52.242Z,30.90
2023-05-09T04:19:19.265Z,31.25
2023-05-09T04:21:47.685Z,31.02
2023-05-09T04:24:14.662Z,31.05
2023-05-09T04:26:42.283Z,30.55
2023-05-09T04:29:09.659Z,30.73
2023-05-09T04:31:36.803Z,29.80
2023-05-09T04:34:03.958Z,30.05
2023-05-09T04:36:32.045Z,29.40
2023-05-09T04:39:00.276Z,29.75
2023-05-09T04:41:27.894Z,29.30
2023-05-09T04:43:54.947Z,29.15
2023-05-09T04:46:25.014Z,28.70
2023-05-09T04:48:52.623Z,28.83
2023-05-09T04:51:19.886Z,28.67
2023-05-09T04:53:47.142Z,27.15
2023-05-09T04:56:14.926Z,28.33
2023-05-09T04:58:41.965Z,28.05
2023-05-09T05:01:08.949Z,28.80
2023-05-09T05:03:35.975Z,28.92
2023-05-09T05:06:03.141Z,27.15
2023-05-09T05:08:30.111Z,28.33
2023-05-09T05:10:57.442Z,27.25
2023-05-09T05:13:24.554Z,26.30
2023-05-09T05:15:52.359Z,25.90
2023-05-09T05:18:20.795Z,25.95
2023-05-09T05:20:48.018Z,26.48
2023-05-09T05:23:15.005Z,25.75
2023-05-09T05:25:42.208Z,25.67
2023-05-09T05:28:10.894Z,25.65
2023-05-09T05:30:37.981Z,25.80
2023-05-09T05:33:05.145Z,25.65
2023-05-09T05:35:32.177Z,25.38
2023-05-09T05:37:59.219Z,26.05
2023-05-09T05:40:26.367Z,25.58
2023-05-09T05:42:53.448Z,25.25
2023-05-09T05:45:20.794Z,24.95
2023-05-09T05:47:47.849Z,24.90
2023-05-09T05:50:16.321Z,24.67
2023-05-09T05:52:43.365Z,24.38
2023-05-09T05:55:10.754Z,23.45
2023-05-09T05:57:39.427Z,23.30
2023-05-09T06:00:16.997Z,23.48
2023-05-09T06:02:45.486Z,22.85
2023-05-09T06:05:13.009Z,22.55
2023-05-09T06:07:44.483Z,23.08
2023-05-09T06:10:11.548Z,23.45
2023-05-09T06:12:38.835Z,22.75
2023-05-09T06:15:06.439Z,23.17
2023-05-09T06:17:34.097Z,23.33
2023-05-09T06:20:02.305Z,23.40
2023-05-09T06:22:29.330Z,23.60
2023-05-09T06:24:56.382Z,23.35
2023-05-09T06:27:23.535Z,24.27
2023-05-09T06:29:52.709Z,23.83
2023-05-09T06:32:19.765Z,23.95
2023-05-09T06:34:46.873Z,22.80
2023-05-09T06:37:13.927Z,22.27
2023-05-09T06:39:40.888Z,22.23
2023-05-09T06:42:07.884Z,22.10
2023-05-09T06:44:34.922Z,22.45
2023-05-09T06:47:01.993Z,21.75
2023-05-09T06:49:29.082Z,21.90
2023-05-09T06:51:56.046Z,22.58
2023-05-09T06:54:23.081Z,22.17
2023-05-09T06:56:50.081Z,22.45
2023-05-09T06:59:17.367Z,22.08
2023-05-09T07:01:44.564Z,21.50
2023-05-09T07:04:11.619Z,20.90
2023-05-09T07:06:38.613Z,21.27
2023-05-09T07:09:05.683Z,21.25
2023-05-09T07:11:38.798Z,22.13
2023-05-09T07:14:05.830Z,21.25
2023-05-09T07:16:34.604Z,22.10
2023-05-09T07:19:02.964Z,21.40
2023-05-09T07:21:30.007Z,21.10
2023-05-09T07:23:57.121Z,21.40
2023-05-09T07:26:24.201Z,21.17
2023-05-09T07:28:51.182Z,21.17
2023-05-09T07:31:18.214Z,21.13
2023-05-09T07:33:45.289Z,21.60
2023-05-09T07:36:16.996Z,21.83
2023-05-09T07:38:44.047Z,21.08
2023-05-09T07:41:11.585Z,21.73
2023-05-09T07:43:38.849Z,20.77
2023-05-09T07:46:06.331Z,21.23
2023-05-09T07:48:33.424Z,22.17
2023-05-09T07:51:00.552Z,21.25
2023-05-09T07:53:27.594Z,21.15
2023-05-09T07:55:56.703Z,21.27
2023-05-09T07:58:25.048Z,21.10
2023-05-09T08:00:52.039Z,21.42
2023-05-09T08:03:21.041Z,21.45
2023-05-09T08:05:48.217Z,21.02
2023-05-09T08:08:15.238Z,20.98
2023-05-09T08:10:42.274Z,21.40
2023-05-09T08:13:09.815Z,21.27
2023-05-09T08:15:36.767Z,20.42
2023-05-09T08:18:04.054Z,20.17
2023-05-09T08:20:34.636Z,21.15
2023-05-09T08:23:01.716Z,20.85
2023-05-09T08:25:29.764Z,20.15
2023-05-09T08:27:57.592Z,20.10
2023-05-09T08:30:25.114Z,20.05
2023-05-09T08:32:52.076Z,20.58
2023-05-09T08:35:19.249Z,19.85
2023-05-09T08:37:48.164Z,19.52
2023-05-09T08:40:16.029Z,19.65
2023-05-09T08:42:45.939Z,20.08
2023-05-09T08:45:17.179Z,19.98
2023-05-09T08:47:45.831Z,19.95
2023-05-09T08:50:15.711Z,20.10
2023-05-09T08:52:43.124Z,19.80
2023-05-09T08:55:10.374Z,20.50
2023-05-09T08:57:37.702Z,20.20
2023-05-09T09:00:11.409Z,20.45
2023-05-09T09:02:42.342Z,20.80
2023-05-09T09:05:19.625Z,20.02
2023-05-09T09:07:56.622Z,21.20
2023-05-09T09:10:27.285Z,21.08
2023-05-09T09:12:57.506Z,20.83
2023-05-09T09:15:29.116Z,21.33
2023-05-09T09:17:59.973Z,20.98
2023-05-09T09:20:28.686Z,20.60
2023-05-09T09:23:02.906Z,21.25
2023-05-09T09:25:29.953Z,21.40
2023-05-09T09:27:57.016Z,21.48
2023-05-09T09:30:27.836Z,21.00
2023-05-09T09:32:58.877Z,20.90
2023-05-09T09:35:26.204Z,21.75
2023-05-09T09:38:01.709Z,21.42
2023-05-09T09:40:28.723Z,21.38
2023-05-09T09:42:55.680Z,20.90
2023-05-09T09:45:22.818Z,20.60
2023-05-09T09:47:50.463Z,21.60
2023-05-09T09:50:19.726Z,21.05
2023-05-09T09:52:52.402Z,21.35
2023-05-09T09:55:20.875Z,21.42
2023-05-09T09:57:48.829Z,22.25
2023-05-09T10:00:18.112Z,22.10
2023-05-09T10:02:53.467Z,21.50
2023-05-09T10:05:22.748Z,20.90
2023-05-09T10:07:56.645Z,20.67
2023-05-09T10:10:28.546Z,21.00
2023-05-09T10:13:04.707Z,22.05
2023-05-09T10:15:41.488Z,21.10
2023-05-09T10:18:20.449Z,22.38
2023-05-09T10:20:47.942Z,22.27
2023-05-09T10:23:16.703Z,21.55
2023-05-09T10:25:59.807Z,21.77
2023-05-09T10:28:32.559Z,20.73
2023-05-09T10:31:25.481Z,21.35
2023-05-09T10:33:52.999Z,22.40
2023-05-09T10:36:26.553Z,21.85
2023-05-09T10:38:55.263Z,21.30
2023-05-09T10:41:22.741Z,21.42
2023-05-09T10:43:50.046Z,22.08
2023-05-09T10:46:18.000Z,22.40
2023-05-09T10:48:45.786Z,22.40
2023-05-09T10:51:13.329Z,22.00
2023-05-09T10:53:49.138Z,22.38
2023-05-09T10:56:25.394Z,22.58
2023-05-09T10:58:52.757Z,22.58
2023-05-09T11:01:35.498Z,22.35
2023-05-09T11:04:10.282Z,22.55
2023-05-09T11:06:51.239Z,22.60
2023-05-09T11:09:41.622Z,22.65
2023-05-09T11:12:13.396Z,23.10
2023-05-09T11:14:47.094Z,21.63
2023-05-09T11:17:23.280Z,21.98
2023-05-09T11:19:50.525Z,21.08
2023-05-09T11:22:24.874Z,22.17
2023-05-09T11:24:59.610Z,21.75
2023-05-09T11:27:29.132Z,21.67
2023-05-09T11:29:57.962Z,23.52
2023-05-09T11:32:31.830Z,23.30
2023-05-09T11:35:09.580Z,23.08
2023-05-09T11:37:50.131Z,23.35
2023-05-09T11:40:19.374Z,21.73
2023-05-09T11:42:49.526Z,20.90
2023-05-09T11:45:17.839Z,22.10
2023-05-09T11:47:46.448Z,22.25
2023-05-09T11:50:16.331Z,23.63
2023-05-09T11:52:43.907Z,23.90
2023-05-09T11:55:14.347Z,24.27
2023-05-09T11:57:46.425Z,22.88
2023-05-09T12:00:18.663Z,23.75
2023-05-09T12:02:46.684Z,22.58
2023-05-09T12:05:16.537Z,23.20
2023-05-09T12:07:44.706Z,22.63
2023-05-09T12:10:17.310Z,22.80
2023-05-09T12:12:50.482Z,22.73
2023-05-09T12:15:18.273Z,22.10
2023-05-09T12:17:47.692Z,22.25
2023-05-09T12:20:16.773Z,22.55
2023-05-09T12:22:44.842Z,22.17
2023-05-09T12:25:12.565Z,22.63
2023-05-09T12:27:41.267Z,21.17
2023-05-09T12:30:10.820Z,22.35
2023-05-09T12:32:40.604Z,22.08
2023-05-09T12:35:10.969Z,22.05
2023-05-09T12:37:39.645Z,22.05
2023-05-09T12:40:12.618Z,21.05
2023-05-09T12:42:40.019Z,21.33
2023-05-09T12:45:09.681Z,22.20
2023-05-09T12:47:42.175Z,22.00
2023-05-09T12:50:12.441Z,22.52
2023-05-09T12:52:58.898Z,22.02
2023-05-09T12:55:30.537Z,22.13
2023-05-09T12:58:03.807Z,21.85
2023-05-09T13:00:44.116Z,22.48
2023-05-09T13:03:27.709Z,21.52
2023-05-09T13:06:02.066Z,21.37
2023-05-09T13:08:29.788Z,22.63
2023-05-09T13:11:12.071Z,21.20
2023-05-09T13:13:43.261Z,21.90
2023-05-09T13:16:11.673Z,21.67
2023-05-09T13:18:39.778Z,21.02
2023-05-09T13:21:07.211Z,21.48
2023-05-09T13:23:34.187Z,20.95
2023-05-09T13:26:01.277Z,21.02
2023-05-09T13:28:29.562Z,21.58
2023-05-09T13:30:56.621Z,21.52
2023-05-09T13:33:26.629Z,20.42
2023-05-09T13:35:54.278Z,20.92
2023-05-09T13:38:21.460Z,20.38
2023-05-09T13:40:48.431Z,20.40
2023-05-09T13:43:15.568Z,20.60
2023-05-09T13:45:42.743Z,21.15
2023-05-09T13:48:10.091Z,20.90
2023-05-09T13:50:37.339Z,20.38
2023-05-09T13:53:04.710Z,21.60
2023-05-09T13:55:31.785Z,22.10
2023-05-09T13:57:59.104Z,21.23
2023-05-09T14:00:26.820Z,21.23
2023-05-09T14:02:54.024Z,21.45
2023-05-09T14:05:22.749Z,20.75
2023-05-09T14:07:49.723Z,20.95
2023-05-09T14:10:17.783Z,21.10
2023-05-09T14:12:47.462Z,21.65
2023-05-09T14:15:14.627Z,20.90
2023-05-09T14:17:43.599Z,21.08
2023-05-09T14:20:11.107Z,20.65
2023-05-09T14:22:38.106Z,20.15
2023-05-09T14:25:06.749Z,21.30
2023-05-09T14:27:37.067Z,21.00
2023-05-09T14:30:05.267Z,21.15
2023-05-09T14:32:32.897Z,20.88
2023-05-09T14:35:02.257Z,20.75
2023-05-09T14:37:29.620Z,21.50
2023-05-09T14:39:58.481Z,21.20
2023-05-09T14:42:25.682Z,20.30
2023-05-09T14:44:52.693Z,20.58
2023-05-09T14:47:21.195Z,20.55
2023-05-09T14:49:48.218Z,21.35
2023-05-09T14:52:15.464Z,21.10
2023-05-09T14:54:42.432Z,20.88
2023-05-09T14:57:09.887Z,21.27
2023-05-09T14:59:37.670Z,21.00
2023-05-09T15:02:04.800Z,20.88
2023-05-09T15:04:32.093Z,20.67
2023-05-09T15:07:00.802Z,20.58
2023-05-09T15:09:28.101Z,20.52
2023-05-09T15:11:55.455Z,20.45
2023-05-09T15:14:22.434Z,20.45
2023-05-09T15:16:52.752Z,19.75
2023-05-09T15:19:19.861Z,20.60
2023-05-09T15:21:46.863Z,20.90
2023-05-09T15:24:16.522Z,20.48
2023-05-09T15:26:43.647Z,20.60
2023-05-09T15:29:10.591Z,19.85
2023-05-09T15:31:37.557Z,21.00
2023-05-09T15:34:04.765Z,21.10
2023-05-09T15:36:33.956Z,20.13
2023-05-09T15:39:01.054Z,20.50
2023-05-09T15:41:28.790Z,19.60
2023-05-09T15:43:55.957Z,20.65
2023-05-09T15:46:23.209Z,20.10
2023-05-09T15:48:50.541Z,20.92
2023-05-09T15:51:17.637Z,19.25
2023-05-09T15:53:45.020Z,19.33
2023-05-09T15:56:11.946Z,19.42
2023-05-09T15:58:40.830Z,18.88
2023-05-09T16:01:08.309Z,18.92
2023-05-09T16:03:35.800Z,18.75
2023-05-09T16:06:03.468Z,18.98
2023-05-09T16:08:30.505Z,19.33
2023-05-09T16:11:01.240Z,18.85
2023-05-09T16:13:28.411Z,18.35
2023-05-09T16:15:55.784Z,18.70
2023-05-09T16:18:23.113Z,18.45
2023-05-09T16:20:50.260Z,19.27
2023-05-09T16:23:17.650Z,18.88
2023-05-09T16:25:45.163Z,18.00
2023-05-09T16:28:12.409Z,18.80
2023-05-09T16:30:39.433Z,18.63
2023-05-09T16:33:06.491Z,18.50
2023-05-09T16:35:34.127Z,18.77
2023-05-09T16:38:01.163Z,18.80
2023-05-09T16:40:28.659Z,18.60
2023-05-09T16:42:55.923Z,18.33
2023-05-09T16:45:22.988Z,18.15
2023-05-09T16:47:51.373Z,18.58
2023-05-09T16:50:18.525Z,18.30
2023-05-09T16:52:45.671Z,18.42
2023-05-09T16:55:12.775Z,18.52
2023-05-09T16:57:40.027Z,18.45
2023-05-09T17:00:08.051Z,18.75
2023-05-09T17:02:36.536Z,18.48
2023-05-09T17:05:04.463Z,18.45
2023-05-09T17:07:32.406Z,17.98
2023-05-09T17:09:59.848Z,17.92
2023-05-09T17:12:27.809Z,18.13
2023-05-09T17:14:54.736Z,18.52
2023-05-09T17:17:21.798Z,18.27
2023-05-09T17:19:48.811Z,18.23
2023-05-09T17:22:15.830Z,17.90
2023-05-09T17:24:42.856Z,17.90
2023-05-09T17:27:11.665Z,17.65
2023-05-09T17:29:38.761Z,17.45
2023-05-09T17:32:06.859Z,18.13
2023-05-09T17:34:33.893Z,17.88
2023-05-09T17:37:02.606Z,17.52
2023-05-09T17:39:29.706Z,17.70
2023-05-09T17:41:56.762Z,17.50
2023-05-09T17:44:24.151Z,17.80
2023-05-09T17:46:51.437Z,17.67
2023-05-09T17:49:19.912Z,17.58
2023-05-09T17:51:46.901Z,18.00
2023-05-09T17:54:15.953Z,17.85
2023-05-09T17:56:43.101Z,17.80
2023-05-09T17:59:10.152Z,17.77
2023-05-09T18:01:37.213Z,17.30
2023-05-09T18:04:04.398Z,16.80
2023-05-09T18:06:31.988Z,16.98
2023-05-09T18:08:59.136Z,16.90
2023-05-09T18:11:26.347Z,16.17
2023-05-09T18:13:53.940Z,16.73
2023-05-09T18:16:21.045Z,16.40
2023-05-09T18:18:48.517Z,16.60
2023-05-09T18:21:15.833Z,16.45
2023-05-09T18:23:43.012Z,16.60
2023-05-09T18:26:11.275Z,17.45
2023-05-09T18:28:41.005Z,17.92
2023-05-09T18:31:10.248Z,18.20
2023-05-09T18:33:39.135Z,17.98
2023-05-09T18:36:09.611Z,17.58
2023-05-09T18:38:41.123Z,17.05
2023-05-09T18:41:09.881Z,17.98
2023-05-09T18:43:38.985Z,17.88
2023-05-09T18:46:08.133Z,17.52
2023-05-09T18:48:35.390Z,17.40
2023-05-09T18:51:04.515Z,18.63
2023-05-09T18:53:33.865Z,17.50
2023-05-09T18:56:01.921Z,18.60
2023-05-09T18:58:32.566Z,17.60
2023-05-09T19:00:59.738Z,17.45
2023-05-09T19:03:27.403Z,17.77
2023-05-09T19:05:56.204Z,17.65
2023-05-09T19:08:23.297Z,17.05
2023-05-09T19:10:50.591Z,17.63
2023-05-09T19:13:19.057Z,17.55
2023-05-09T19:15:47.583Z,17.40
2023-05-09T19:18:14.621Z,17.58
2023-05-09T19:20:41.675Z,17.50
2023-05-09T19:23:09.007Z,17.50
2023-05-09T19:25:37.843Z,17.38
2023-05-09T19:28:05.401Z,17.08
2023-05-09T19:30:32.535Z,17.67
2023-05-09T19:33:00.031Z,18.40
2023-05-09T19:35:27.113Z,19.67
2023-05-09T19:37:54.162Z,19.95
2023-05-09T19:40:21.749Z,18.95
2023-05-09T19:42:49.713Z,19.17
2023-05-09T19:45:16.831Z,20.42
2023-05-09T19:47:43.917Z,21.48
2023-05-09T19:50:11.654Z,23.33
2023-05-09T19:52:38.735Z,30.10
2023-05-09T19:55:06.774Z,30.17
2023-05-09T19:57:33.794Z,36.42
2023-05-09T20:00:00.944Z,40.05
2023-05-09T20:02:28.057Z,38.65
2023-05-09T20:04:56.572Z,38.90
2023-05-09T20:07:23.925Z,39.60
2023-05-09T20:09:50.986Z,39.83
2023-05-09T20:12:18.059Z,38.67
2023-05-09T20:14:45.493Z,39.85
2023-05-09T20:17:12.609Z,38.85
2023-05-09T20:19:39.862Z,39.30
2023-05-09T20:22:09.088Z,39.15
2023-05-09T20:24:36.117Z,40.45
2023-05-09T20:27:03.310Z,40.58
2023-05-09T20:29:30.458Z,39.25
2023-05-09T20:31:57.829Z,40.15
2023-05-09T20:34:25.093Z,44.50
2023-05-09T20:36:55.211Z,41.22
2023-05-09T20:39:23.221Z,39.35
2023-05-09T20:41:50.832Z,40.13
2023-05-09T20:44:18.661Z,40.30
2023-05-09T20:46:45.632Z,41.30
2023-05-09T20:49:13.181Z,41.45
2023-05-09T20:51:40.204Z,39.35
2023-05-09T20:54:07.413Z,40.05
2023-05-09T20:56:35.694Z,40.67
2023-05-09T20:59:04.401Z,40.88
2023-05-09T21:01:35.895Z,40.17
2023-05-09T21:04:05.873Z,41.55
2023-05-09T21:06:33.312Z,43.42
2023-05-09T21:09:00.381Z,42.65
2023-05-09T21:11:27.636Z,42.08
2023-05-09T21:13:54.739Z,41.35
2023-05-09T21:16:22.221Z,40.70
2023-05-09T21:18:49.311Z,40.17
2023-05-09T21:21:16.761Z,41.33
2023-05-09T21:23:43.815Z,40.78
2023-05-09T21:26:11.128Z,40.67
2023-05-09T21:28:38.140Z,42.92
2023-05-09T21:31:05.353Z,40.33
2023-05-09T21:33:33.708Z,41.75
2023-05-09T21:36:02.456Z,41.67
2023-05-09T21:38:29.522Z,40.63
2023-05-09T21:40:56.542Z,40.97
2023-05-09T21:43:23.866Z,40.85
2023-05-09T21:45:50.857Z,38.17
2023-05-09T21:48:18.057Z,38.15
2023-05-09T21:50:46.267Z,40.22
2023-05-09T21:53:14.697Z,38.15
2023-05-09T21:55:41.675Z,38.75
2023-05-09T21:58:09.034Z,41.63
2023-05-09T22:00:36.017Z,40.60
2023-05-09T22:03:03.034Z,40.08
2023-05-09T22:05:30.218Z,45.60
2023-05-09T22:07:57.253Z,39.53
2023-05-09T22:10:24.283Z,38.42
2023-05-09T22:12:51.244Z,38.03
2023-05-09T22:15:18.316Z,37.80
2023-05-09T22:17:45.434Z,36.28
2023-05-09T22:20:12.818Z,36.05
2023-05-09T22:22:39.949Z,37.15
2023-05-09T22:25:07.265Z,37.42
2023-05-09T22:27:34.505Z,36.53
2023-05-09T22:30:01.725Z,36.22
2023-05-09T22:32:28.892Z,37.65
2023-05-09T22:34:55.969Z,36.75
2023-05-09T22:37:23.037Z,37.15
2023-05-09T22:39:50.116Z,37.67
2023-05-09T22:42:17.207Z,37.05
2023-05-09T22:44:44.245Z,37.75
2023-05-09T22:47:11.573Z,38.20
2023-05-09T22:49:38.941Z,40.00
2023-05-09T22:52:05.973Z,40.67
2023-05-09T22:54:34.999Z,41.90
2023-05-09T22:57:02.109Z,40.88
2023-05-09T22:59:29.086Z,42.13
2023-05-09T23:01:56.295Z,42.97
2023-05-09T23:04:23.357Z,42.45
2023-05-09T23:06:50.627Z,42.35
2023-05-09T23:09:17.576Z,42.53
2023-05-09T23:11:44.582Z,42.85
2023-05-09T23:14:11.733Z,42.47
2023-05-09T23:16:38.733Z,42.28
2023-05-09T23:19:06.914Z,42.35
2023-05-09T23:21:33.958Z,43.53
2023-05-09T23:24:01.175Z,42.58
2023-05-09T23:26:28.234Z,42.83
2023-05-09T23:28:58.353Z,43.80
2023-05-09T23:31:25.733Z,43.40
2023-05-09T23:33:52.945Z,43.03
2023-05-09T23:36:20.118Z,43.05
2023-05-09T23:38:47.159Z,42.40
2023-05-09T23:41:14.505Z,42.92
2023-05-09T23:43:42.045Z,40.85
2023-05-09T23:46:09.348Z,41.33
2023-05-09T23:48:37.686Z,42.08
2023-05-09T23:51:05.158Z,41.80
2023-05-09T23:53:35.140Z,40.95
2023-05-09T23:56:03.035Z,41.58
2023-05-09T23:58:30.062Z,42.08
